Latest Coastal Weather Observations for Low Rocky Point

IDT60701

Issued at 6:22 am EST Monday 25 July 2016 (issued every 10 minutes, with the page automatically refreshed every 10 minutes)

About coastal observations | Map of coastal stations | Coastal observations for TAS | Marine services | Other Formats
Station Details ID: 097080 Name: LOW ROCKY POINT Lat: -42.98 Lon: 145.50 Height: 34.0 m
Data from the previous 72 hours. | See also: Recent months at Low Rocky Point
Date/Time
EST
Temp
°C
Wind Pressure Rain since
9am
mm
Weather Cloud Vis
km
Sea
Height
m
Swell
Dir  Spd
kts
Gust
kts
hPa Trend Height
m
Period
s
Dir
25/06:00am 7.0 N 13 17 997.4 - 12.8 - - - - - - -
25/05:30am 6.8 N 12 17 997.7 - 12.8 - - - - - - -
25/05:00am 6.9 N 11 16 997.9 - 12.8 Rain - - - - - -
25/04:30am 6.9 N 8 12 997.8 - 12.4 - - - - - - -
25/04:00am 7.3 N 9 13 998.1 - 12.2 Recent precip. - - - - - -
25/03:30am 7.3 N 12 15 998.2 - 11.2 - - - - - - -
25/03:00am 6.9 N 13 17 998.2 - 8.8 Recent precip. - - - - - -
25/02:30am 6.0 N 12 16 998.3 - 8.6 - - - - - - -
25/02:00am 6.1 N 12 16 998.6 - 8.6 - - - - - - -
25/01:30am 5.9 N 12 15 998.5 - 8.6 - - - - - - -
25/01:00am 6.4 N 11 15 998.7 - 8.6 - - - - - - -
25/12:30am 6.3 N 14 19 998.8 - 8.6 - - - - - - -
25/12:00am 6.5 N 13 19 999.3 - 8.6 - - - - - - -
 
Date/Time
EST
Temp
°C
Wind Pressure Rain since
9am
mm
Weather Cloud Vis
km
Sea
Height
m
Swell
Dir  Spd
kts
Gust
kts
hPa Trend Height
m
Period
s
Dir
24/11:30pm 6.0 N 10 15 999.4 - 8.6 - - - - - - -
24/11:00pm 6.2 N 13 17 999.6 - 8.6 Recent precip. - - - - - -
24/10:30pm 6.2 N 13 17 999.9 - 8.6 - - - - - - -
24/10:00pm 5.6 N 12 15 1000.1 - 8.4 - - - - - - -
24/09:30pm 5.1 NNE 12 16 1000.2 - 8.4 - - - - - - -
24/09:00pm 5.5 NNE 12 15 1000.5 - 8.4 Recent precip. - - - - - -
24/08:30pm 5.7 NNE 9 13 1000.8 - 8.4 - - - - - - -
24/08:00pm 6.1 N 8 11 1001.0 - 8.0 Rain - - - - - -
24/07:30pm 5.5 NNE 11 14 1000.8 - 7.8 - - - - - - -
24/07:00pm 5.8 N 9 11 1001.0 - 7.8 Recent precip. - - - - - -
24/06:30pm 6.3 NNE 6 10 1001.3 - 7.6 - - - - - - -
24/06:00pm 6.4 N 12 17 1001.4 - 6.8 Rain - - - - - -
24/05:30pm 5.9 N 10 13 1001.1 - 6.0 - - - - - - -
24/05:00pm 6.4 N 10 13 1001.3 - 5.8 - - - - - - -
24/04:30pm 6.7 NNE 7 10 1001.5 - 5.8 - - - - - - -
24/04:00pm 7.1 NNW 13 17 1001.6 - 5.8 Rain - - - - - -
24/03:30pm 7.6 N 13 19 1001.5 - 5.6 - - - - - - -
24/03:00pm 8.3 WNW 9 16 1001.7 - 5.4 Recent precip. - - - - - -
24/02:30pm 6.8 N 10 13 1001.8 - 5.2 - - - - - - -
24/02:00pm 7.5 N 11 15 1002.1 - 3.4 - - - - - - -
24/01:30pm 7.1 N 10 14 1002.4 - 3.4 - - - - - - -
24/01:00pm 6.9 NNW 12 18 1002.7 - 3.4 Recent precip. - - - - - -
24/12:30pm 8.0 N 10 14 1002.9 - 1.8 - - - - - - -
24/12:00pm 8.9 NNW 12 19 1003.3 - 1.8 - - - - - - -
24/11:30am 7.2 N 9 16 1003.9 - 1.8 - - - - - - -
24/11:00am 6.6 N 9 14 1004.3 - 1.8 Recent precip. - - - - - -
24/10:30am 6.5 NNE 9 11 1004.4 - 1.8 - - - - - - -
24/10:00am 8.0 N 10 14 1004.4 - 0.0 - - - - - - -
24/09:30am 7.8 NNW 11 15 1004.5 - 0.0 - - - - - - -
24/09:00am 8.2 NW 16 24 1004.6 - 3.4 Recent precip. - - - - - -
24/08:30am 7.3 WNW 12 16 1004.6 - 3.4 - - - - - - -
24/08:00am 6.8 WNW 18 23 1004.8 - 3.2 - - - - - - -
24/07:39am 8.4 WNW 18 28 1004.5 - 3.2 - - - - - - -
24/07:30am 8.2 WNW 16 21 1004.5 - 3.2 - - - - - - -
24/07:00am 8.2 WNW 19 23 1004.3 - 3.2 - - - - - - -
24/06:30am 8.3 WNW 19 23 1004.1 - 3.2 - - - - - - -
24/06:00am 7.9 W 20 23 1004.1 - 3.2 Recent precip. - - - - - -
24/05:30am 7.8 W 19 26 1004.0 - 3.2 - - - - - - -
24/05:07am 7.5 W 19 29 1004.0 - 3.0 - - - - - - -
24/05:00am 7.1 W 19 24 1004.1 - 3.0 - - - - - - -
24/04:30am 7.6 W 18 23 1004.1 - 3.0 - - - - - - -
24/04:00am 7.2 WSW 16 22 1004.3 - 3.0 Recent precip. - - - - - -
24/03:34am 7.0 W 17 28 1004.3 - 3.0 - - - - - - -
24/03:30am 6.5 WSW 16 22 1004.4 - 3.0 - - - - - - -
24/03:14am 7.4 W 17 28 1004.5 - 2.8 - - - - - - -
24/03:00am 7.6 WNW 19 24 1004.4 - 2.8 - - - - - - -
24/02:30am 6.7 WNW 19 24 1004.7 - 2.8 - - - - - - -
24/02:00am 7.2 W 23 28 1004.7 - 2.8 - - - - - - -
24/01:30am 6.4 W 22 29 1004.7 - 2.8 - - - - - - -
24/01:18am 6.9 W 22 33 1004.6 - 2.8 - - - - - - -
24/01:00am 6.4 W 21 26 1004.6 - 2.8 Recent precip. - - - - - -
24/12:36am 5.7 WNW 29 39 1005.1 - 2.4 - - - - - - -
24/12:30am 6.1 WNW 33 39 1004.9 - 2.2 - - - - - - -
24/12:19am 7.0 WNW 30 41 1004.6 - 2.2 - - - - - - -
24/12:00am 7.2 WNW 22 33 1004.3 - 2.2 Recent precip. - - - - - -
 
Date/Time
EST
Temp
°C
Wind Pressure Rain since
9am
mm
Weather Cloud Vis
km
Sea
Height
m
Swell
Dir  Spd
kts
Gust
kts
hPa Trend Height
m
Period
s
Dir
23/11:37pm 7.7 WNW 21 31 1004.5 - 2.0 - - - - - - -
23/11:30pm 7.6 W 18 23 1004.6 - 2.0 - - - - - - -
23/11:00pm 8.1 W 19 25 1004.5 - 2.0 - - - - - - -
23/10:30pm 7.6 W 19 25 1004.5 - 2.0 - - - - - - -
23/10:00pm 5.9 WSW 14 28 1004.5 - 2.0 Rain - - - - - -
23/09:51pm 7.6 WSW 16 28 1004.4 - 1.8 - - - - - - -
23/09:30pm 8.1 WSW 17 25 1004.1 - 1.8 - - - - - - -
23/09:00pm 6.6 SW 13 20 1004.0 - 1.8 - - - - - - -
23/08:30pm 7.0 SW 19 32 1003.6 - 1.8 - - - - - - -
23/08:00pm 7.7 WSW 19 29 1003.0 - 1.8 - - - - - - -
23/07:53pm 7.6 SW 19 29 1002.9 - 1.8 - - - - - - -
23/07:30pm 7.2 SW 18 25 1002.8 - 1.8 - - - - - - -
23/07:08pm 7.2 SW 22 32 1002.5 - 1.8 - - - - - - -
23/07:00pm 7.4 SW 22 31 1002.4 - 1.8 - - - - - - -
23/06:35pm 6.6 WSW 15 25 1001.9 - 1.8 - - - - - - -
23/06:30pm 6.3 SW 13 24 1001.8 - 1.8 - - - - - - -
23/06:29pm 6.1 SW 14 28 1001.8 - 1.8 - - - - - - -
23/06:20pm 5.6 SW 28 46 1002.0 - 1.8 - - - - - - -
23/06:16pm 6.6 SW 29 46 1001.5 - 1.8 - - - - - - -
23/06:00pm 7.4 SW 23 34 1000.8 - 1.8 - - - - - - -
23/05:56pm 7.3 SW 23 33 1000.7 - 1.8 - - - - - - -
23/05:30pm 7.3 WSW 24 35 1000.0 - 1.8 - - - - - - -
23/05:08pm 7.4 SW 22 32 999.4 - 1.8 - - - - - - -
23/05:00pm 7.2 SW 23 31 999.2 - 1.8 - - - - - - -
23/04:30pm 6.2 SW 22 33 998.8 - 1.8 - - - - - - -
23/04:00pm 4.9 SW 27 46 998.4 - 1.8 Rain - - - - - -
23/03:35pm 6.4 WSW 20 40 997.2 - 1.4 - - - - - - -
23/03:30pm 6.8 WSW 20 29 997.0 - 1.4 - - - - - - -
23/03:28pm 6.9 WSW 20 30 997.0 - 1.4 - - - - - - -
23/03:01pm 5.6 SW 23 34 996.1 - 1.4 - - - - - - -
23/03:00pm 5.6 SW 23 32 996.2 - 1.4 Recent precip. - - - - - -
23/02:33pm 5.7 SW 25 35 995.2 - 1.2 - - - - - - -
23/02:30pm 6.2 SW 25 34 995.2 - 1.0 - - - - - - -
23/02:13pm 6.3 SW 26 36 994.5 - 1.0 - - - - - - -
23/02:00pm 6.1 SW 25 34 994.3 - 1.0 Recent precip. - - - - - -
23/01:43pm 4.9 WSW 17 31 994.1 - 0.8 - - - - - - -
23/01:42pm 5.2 WSW 17 31 994.0 - 0.6 - - - - - - -
23/01:41pm 5.6 WSW 16 31 994.0 - 0.6 - - - - - - -
23/01:30pm 4.5 WSW 17 24 993.8 - 0.6 - - - - - - -
23/01:26pm 5.3 SW 16 24 993.9 - 0.4 - - - - - - -
23/01:09pm 5.9 SSW 23 32 993.6 - 0.2 - - - - - - -
23/01:07pm 5.8 SSW 23 32 993.4 - 0.2 - - - - - - -
23/01:00pm 7.4 WSW 19 32 993.3 - 0.2 - - - - - - -
23/12:34pm 7.0 WSW 18 28 992.5 - 0.2 - - - - - - -
23/12:30pm 6.8 WSW 18 23 992.5 - 0.2 - - - - - - -
23/12:00pm 6.7 WSW 21 31 992.1 - 0.2 Recent precip. - - - - - -
23/11:31am 6.5 WSW 21 31 992.0 - 0.0 - - - - - - -
23/11:30am 6.6 WSW 22 31 992.0 - 0.0 - - - - - - -
23/11:19am 6.8 WSW 22 32 991.8 - 0.0 - - - - - - -
23/11:00am 5.9 WSW 25 32 991.4 - 0.0 - - - - - - -
23/10:30am 5.3 WSW 29 43 991.3 - 0.0 - - - - - - -
23/10:19am 6.6 WSW 27 39 990.8 - 0.0 - - - - - - -
23/10:00am 5.6 WSW 24 32 990.6 - 0.0 - - - - - - -
23/09:45am 5.7 WSW 28 44 990.8 - 0.0 - - - - - - -
23/09:30am 6.1 WSW 24 34 990.2 - 0.0 - - - - - - -
23/09:00am 5.3 WSW 25 37 989.6 - 9.8 Rain - - - - - -
23/08:30am 4.9 WSW 23 35 989.3 - 9.6 - - - - - - -
23/08:26am 4.9 WSW 25 35 989.3 - 9.6 - - - - - - -
23/08:22am 5.1 WSW 25 33 989.3 - 9.6 - - - - - - -
23/08:00am 5.0 W 28 35 989.1 - 9.6 Recent precip. - - - - - -
23/07:30am 4.0 WSW 23 40 988.8 - 9.6 - - - - - - -
23/07:27am 4.2 WSW 23 32 988.8 - 9.6 - - - - - - -
23/07:24am 3.9 WSW 24 38 988.7 - 9.6 - - - - - - -
23/07:02am 4.5 WSW 27 44 988.0 - 8.8 - - - - - - -
23/07:01am 4.7 W 26 39 988.0 - 8.8 - - - - - - -
23/07:00am 4.9 W 26 39 988.0 - 8.8 Recent precip. - - - - - -
23/06:35am 5.0 WSW 25 35 987.5 - 8.8 - - - - - - -
23/06:30am 4.9 W 24 31 987.7 - 8.6 - - - - - - -
23/06:23am 4.5 W 31 45 987.8 - 8.6 - - - - - - -
23/06:10am 5.5 WSW 25 46 987.2 - 8.6 - - - - - - -
23/06:08am 5.8 WSW 22 37 987.1 - 8.6 - - - - - - -
23/06:00am 5.3 WSW 19 27 987.1 - 8.6 Recent precip. - - - - - -
23/05:30am 5.2 WSW 21 34 986.5 - 8.6 - - - - - - -
23/05:12am 4.9 WSW 23 36 986.1 - 8.6 - - - - - - -
23/05:06am 4.6 W 32 46 986.1 - 8.4 - - - - - - -
23/05:03am 4.8 WSW 32 46 986.1 - 8.4 - - - - - - -
23/05:00am 5.5 WSW 30 46 985.6 - 8.4 Recent precip. - - - - - -
23/04:30am 5.1 WSW 24 37 985.3 - 8.4 - - - - - - -
23/04:09am 5.3 WSW 25 37 985.2 - 8.0 - - - - - - -
23/04:00am 5.2 WSW 24 33 985.1 - 7.8 Recent precip. - - - - - -
23/03:34am 6.7 W 27 45 984.8 - 7.6 - - - - - - -
23/03:30am 6.5 W 25 33 984.7 - 7.6 - - - - - - -
23/03:07am 5.7 W 27 42 984.8 - 7.4 - - - - - - -
23/03:00am 6.6 W 27 35 984.5 - 6.8 Recent precip. - - - - - -
23/02:30am 5.4 W 33 41 984.5 - 6.6 - - - - - - -
23/02:03am 7.1 W 35 45 984.1 - 6.2 - - - - - - -
23/02:00am 7.6 W 35 44 984.0 - 6.2 - - - - - - -
23/01:35am 8.4 W 29 40 983.7 - 6.2 - - - - - - -
23/01:30am 8.6 WNW 24 33 983.7 - 6.2 - - - - - - -
23/01:00am 8.6 WNW 24 29 984.0 - 6.2 - - - - - - -
23/12:30am 8.0 NW 22 28 984.6 - 6.2 - - - - - - -
23/12:12am 7.0 WNW 23 33 984.9 - 6.2 - - - - - - -
23/12:00am 7.5 WNW 28 34 985.0 - 6.2 Rain - - - - - -
 
Date/Time
EST
Temp
°C
Wind Pressure Rain since
9am
mm
Weather Cloud Vis
km
Sea
Height
m
Swell
Dir  Spd
kts
Gust
kts
hPa Trend Height
m
Period
s
Dir
22/11:52pm 8.8 WNW 22 33 985.0 - 6.0 - - - - - - -
22/11:30pm 8.7 WNW 20 24 985.3 - 6.0 - - - - - - -
22/11:04pm 7.7 WNW 15 26 985.5 - 6.0 - - - - - - -
22/11:00pm 6.9 WNW 12 15 985.7 - 6.0 Recent precip. - - - - - -
22/10:37pm 7.4 WNW 15 29 986.1 - 5.8 - - - - - - -
22/10:30pm 7.3 WNW 15 19 986.2 - 5.8 - - - - - - -
22/10:00pm 6.5 W 15 24 986.4 - 5.6 Recent precip. - - - - - -
22/09:37pm 8.2 W 16 29 986.4 - 5.2 - - - - - - -
22/09:30pm 8.6 W 14 17 986.4 - 5.2 - - - - - - -
22/09:00pm 8.1 WNW 16 18 986.7 - 5.2 - - - - - - -
22/08:30pm 8.6 W 18 24 986.7 - 5.2 - - - - - - -
22/08:00pm 8.5 W 18 24 986.8 - 5.2 - - - - - - -
22/07:30pm 8.4 WSW 18 25 986.8 - 5.2 - - - - - - -
22/07:00pm 8.2 WSW 22 30 986.4 - 5.2 Rain - - - - - -
22/06:32pm 7.9 WSW 23 33 986.2 - 5.0 - - - - - - -
22/06:30pm 8.0 WSW 25 33 986.1 - 5.0 - - - - - - -
22/06:00pm 8.9 W 28 36 985.7 - 5.0 Recent precip. - - - - - -
22/05:30pm 9.1 W 31 37 985.0 - 5.0 - - - - - - -
22/05:00pm 8.4 W 32 39 984.4 - 4.8 - - - - - - -
22/04:39pm 8.0 W 30 40 984.0 - 4.8 - - - - - - -
22/04:30pm 9.0 W 30 37 983.7 - 4.8 - - - - - - -
22/04:00pm 9.1 W 31 40 982.7 - 4.8 Recent precip. - - - - - -
22/03:52pm 8.7 W 35 45 982.5 - 4.8 - - - - - - -
22/03:36pm 9.0 WNW 32 47 981.7 - 4.8 - - - - - - -
22/03:30pm 8.8 WNW 32 40 981.5 - 4.6 - - - - - - -
22/03:08pm 9.9 WNW 33 51 980.8 - 4.4 - - - - - - -
22/03:00pm 10.3 WNW 34 40 980.9 - 4.4 - - - - - - -
22/02:40pm 9.9 WNW 32 43 981.0 - 4.4 - - - - - - -
22/02:30pm 10.5 W 31 38 981.0 - 4.4 - - - - - - -
22/02:00pm 10.1 W 33 42 980.7 - 4.4 Recent precip. - - - - - -
22/01:30pm 10.7 WNW 33 39 979.9 - 4.4 - - - - - - -
22/01:02pm 10.5 NW 36 46 978.6 - 4.0 - - - - - - -
22/01:00pm 10.5 NW 35 44 978.7 - 4.0 Recent precip. - - - - - -
22/12:30pm 10.6 NW 32 44 979.1 - 4.0 - - - - - - -
22/12:00pm 9.3 NW 34 58 979.2 - 3.6 Rain - - - - - -
22/11:56am 8.7 NW 32 58 979.3 - 3.0 - - - - - - -
22/11:33am 12.1 NW 33 43 979.8 - 0.2 - - - - - - -
22/11:30am 11.9 NW 34 43 979.9 - 0.2 - - - - - - -
22/11:26am 11.8 NW 33 43 980.1 - 0.2 - - - - - - -
22/11:00am 12.7 NNW 30 38 981.0 - 0.0 - - - - - - -
22/10:31am 12.4 NW 31 41 982.2 - 0.0 - - - - - - -
22/10:30am 12.3 NW 32 41 982.2 - 0.0 - - - - - - -
22/10:00am 12.5 NW 32 41 982.6 - 0.0 - - - - - - -
22/09:45am 12.1 NW 29 41 983.2 - 0.0 - - - - - - -
22/09:30am 12.4 NW 32 39 983.6 - 0.0 - - - - - - -
22/09:10am 12.3 NW 34 44 984.1 - 0.0 - - - - - - -
22/09:00am 12.3 NW 34 41 984.0 - 6.4 - - - - - - -
22/08:30am 12.3 NW 32 44 984.7 - 6.4 - - - - - - -
22/08:00am 12.6 NW 30 40 984.9 - 6.4 - - - - - - -
22/07:30am 12.7 NW 32 42 985.0 - 6.4 - - - - - - -
22/07:17am 12.8 NW 32 42 985.1 - 6.4 - - - - - - -
22/07:00am 13.0 NW 33 42 984.8 - 6.4 - - - - - - -
22/06:30am 13.1 NW 33 43 984.4 - 6.4 - - - - - - -

Other Formats:

Comma delimited format used in spreadsheet applications
http://www.bom.gov.au/fwo/IDT60701/IDT60701.95961.axf

JavaScript Object Notation format (JSON) in row-major order
http://www.bom.gov.au/fwo/IDT60701/IDT60701.95961.json